createdAt,value
2023-01-30T00:02:22.206Z,22.13
2023-01-30T00:04:55.633Z,21.27
2023-01-30T00:07:22.413Z,21.17
2023-01-30T00:09:55.431Z,20.88
2023-01-30T00:12:28.411Z,20.38
2023-01-30T00:15:01.427Z,20.20
2023-01-30T00:17:28.282Z,20.27
2023-01-30T00:19:55.047Z,19.35
2023-01-30T00:22:28.428Z,19.75
2023-01-30T00:24:55.304Z,19.95
2023-01-30T00:27:22.201Z,20.17
2023-01-30T00:30:02.820Z,19.48
2023-01-30T00:32:30.158Z,19.33
2023-01-30T00:35:03.447Z,18.75
2023-01-30T00:37:30.173Z,17.75
2023-01-30T00:40:03.502Z,18.75
2023-01-30T00:42:49.310Z,18.65
2023-01-30T00:45:42.497Z,17.25
2023-01-30T00:50:51.544Z,16.17
2023-01-30T00:53:18.399Z,15.40
2023-01-30T00:55:52.461Z,15.63
2023-01-30T00:58:19.580Z,13.20
2023-01-30T01:00:52.517Z,11.75
2023-01-30T01:03:19.769Z,11.30
2023-01-30T01:05:47.035Z,11.30
2023-01-30T01:08:20.500Z,9.73
2023-01-30T01:10:53.521Z,9.98
2023-01-30T01:13:20.374Z,10.35
2023-01-30T01:15:53.562Z,9.90
2023-01-30T01:18:20.363Z,10.75
2023-01-30T01:20:53.558Z,10.60
2023-01-30T01:23:20.296Z,9.38
2023-01-30T01:25:53.556Z,10.82
2023-01-30T01:28:22.215Z,9.10
2023-01-30T01:30:55.571Z,10.07
2023-01-30T01:33:29.561Z,10.32
2023-01-30T01:36:04.748Z,9.73
2023-01-30T01:38:31.760Z,9.75
2023-01-30T01:41:01.982Z,10.30
2023-01-30T01:43:57.571Z,10.63
2023-01-30T01:46:27.863Z,8.30
2023-01-30T01:49:04.596Z,8.68
2023-01-30T01:51:53.560Z,8.30
2023-01-30T01:55:08.639Z,8.30
2023-01-30T01:57:51.644Z,8.13
2023-01-30T02:00:20.734Z,7.85
2023-01-30T02:03:09.613Z,8.75
2023-01-30T02:05:42.238Z,6.95
2023-01-30T02:08:19.607Z,8.15
2023-01-30T02:11:14.093Z,7.55
2023-01-30T02:13:48.630Z,7.97
2023-01-30T02:16:15.648Z,6.65
2023-01-30T02:18:50.632Z,6.57
2023-01-30T02:21:29.639Z,5.95
2023-01-30T02:24:34.114Z,6.60
2023-01-30T02:27:34.623Z,6.03
2023-01-30T02:30:05.011Z,5.80
2023-01-30T02:33:08.635Z,5.95
2023-01-30T02:36:11.552Z,5.68
2023-01-30T02:41:38.076Z,5.82
2023-01-30T02:44:45.709Z,5.78
2023-01-30T02:47:19.254Z,5.47
2023-01-30T02:50:02.672Z,5.88
2023-01-30T02:52:30.129Z,5.60
2023-01-30T02:55:03.660Z,5.78
2023-01-30T02:57:30.604Z,5.47
2023-01-30T03:00:07.683Z,6.18
2023-01-30T03:02:43.440Z,5.22
2023-01-30T03:05:27.714Z,5.78
2023-01-30T03:08:31.689Z,5.20
2023-01-30T03:11:08.051Z,5.47
2023-01-30T03:14:18.756Z,4.63
2023-01-30T03:16:56.493Z,4.90
2023-01-30T03:19:29.722Z,5.82
2023-01-30T03:21:56.626Z,6.28
2023-01-30T03:24:30.687Z,5.47
2023-01-30T03:27:11.036Z,4.72
2023-01-30T03:29:44.751Z,5.32
2023-01-30T03:32:11.506Z,5.30
2023-01-30T03:34:38.343Z,5.13
2023-01-30T03:37:12.726Z,4.82
2023-01-30T03:39:45.740Z,5.00
2023-01-30T03:42:12.568Z,4.82
2023-01-30T03:44:45.719Z,5.35
2023-01-30T03:47:12.478Z,5.20
2023-01-30T03:49:39.236Z,5.40
2023-01-30T03:52:12.820Z,5.22
2023-01-30T03:54:45.873Z,4.68
2023-01-30T03:57:19.733Z,5.25
2023-01-30T03:59:59.803Z,5.47
2023-01-30T04:02:26.639Z,4.82
2023-01-30T04:04:53.898Z,5.20
2023-01-30T04:07:26.806Z,4.43
2023-01-30T04:09:53.566Z,4.72
2023-01-30T04:12:26.785Z,4.75
2023-01-30T04:14:53.544Z,4.30
2023-01-30T04:17:26.751Z,4.43
2023-01-30T04:19:59.799Z,4.70
2023-01-30T04:22:26.885Z,3.97
2023-01-30T04:24:59.841Z,4.22
2023-01-30T04:27:26.646Z,3.92
2023-01-30T04:29:53.399Z,4.95
2023-01-30T04:32:26.809Z,3.78
2023-01-30T04:34:59.828Z,3.50
2023-01-30T04:37:32.812Z,3.65
2023-01-30T04:39:59.677Z,3.88
2023-01-30T04:42:32.871Z,3.30
2023-01-30T04:45:01.066Z,3.63
2023-01-30T04:47:27.848Z,3.67
2023-01-30T04:50:00.836Z,3.35
2023-01-30T04:52:33.853Z,4.13
2023-01-30T04:55:00.701Z,3.03
2023-01-30T04:57:27.654Z,2.80
2023-01-30T05:00:00.882Z,2.95
2023-01-30T05:02:34.882Z,2.83
2023-01-30T05:05:01.731Z,3.00
2023-01-30T05:07:34.868Z,2.50
2023-01-30T05:10:02.938Z,3.15
2023-01-30T05:12:36.959Z,2.97
2023-01-30T05:15:04.022Z,2.80
2023-01-30T05:17:36.943Z,3.13
2023-01-30T05:20:05.611Z,3.83
2023-01-30T05:22:38.935Z,3.55
2023-01-30T05:25:12.870Z,2.95
2023-01-30T05:27:39.790Z,3.25
2023-01-30T05:30:13.938Z,3.53
2023-01-30T05:32:47.891Z,3.53
2023-01-30T05:35:21.007Z,3.50
2023-01-30T05:37:51.125Z,3.35
2023-01-30T05:40:24.903Z,4.32
2023-01-30T05:42:51.685Z,3.42
2023-01-30T05:45:18.806Z,3.95
2023-01-30T05:48:01.337Z,3.03
2023-01-30T05:50:29.036Z,4.00
2023-01-30T05:53:01.924Z,4.07
2023-01-30T05:55:28.664Z,4.03
2023-01-30T05:57:55.411Z,3.97
2023-01-30T06:00:28.977Z,3.58
2023-01-30T06:02:55.839Z,4.22
2023-01-30T06:05:29.069Z,4.72
2023-01-30T06:07:56.271Z,3.88
2023-01-30T06:10:23.158Z,4.70
2023-01-30T06:12:57.013Z,3.83
2023-01-30T06:15:23.840Z,5.10
2023-01-30T06:17:56.960Z,3.92
2023-01-30T06:20:29.964Z,5.03
2023-01-30T06:22:59.516Z,3.97
2023-01-30T06:25:34.147Z,4.13
2023-01-30T06:28:01.019Z,4.65
2023-01-30T06:30:27.921Z,5.18
2023-01-30T06:33:01.000Z,4.05
2023-01-30T06:35:34.049Z,4.35
2023-01-30T06:38:00.994Z,4.20
2023-01-30T06:40:34.022Z,4.30
2023-01-30T06:43:07.052Z,4.70
2023-01-30T06:45:34.121Z,4.65
2023-01-30T06:48:08.051Z,3.70
2023-01-30T06:50:35.201Z,4.20
2023-01-30T06:53:12.006Z,3.83
2023-01-30T06:55:39.006Z,4.60
2023-01-30T06:58:18.087Z,4.28
2023-01-30T07:00:51.033Z,3.70
2023-01-30T07:03:25.156Z,4.32
2023-01-30T07:05:58.025Z,3.97
2023-01-30T07:08:31.220Z,4.90
2023-01-30T07:10:59.984Z,4.53
2023-01-30T07:13:33.079Z,5.63
2023-01-30T07:16:06.099Z,4.25
2023-01-30T07:18:33.120Z,4.65
2023-01-30T07:21:06.083Z,4.32
2023-01-30T07:23:39.120Z,4.32
2023-01-30T07:26:06.677Z,3.75
2023-01-30T07:28:40.093Z,4.10
2023-01-30T07:31:06.854Z,4.40
2023-01-30T07:33:40.201Z,4.50
2023-01-30T07:36:07.312Z,4.22
2023-01-30T07:38:41.076Z,4.30
2023-01-30T07:41:07.941Z,4.18
2023-01-30T07:43:41.168Z,3.80
2023-01-30T07:46:08.082Z,4.28
2023-01-30T07:48:41.149Z,3.40
2023-01-30T07:51:14.121Z,3.75
2023-01-30T07:53:41.081Z,4.30
2023-01-30T07:56:21.112Z,3.63
2023-01-30T07:58:48.472Z,3.95
2023-01-30T08:01:22.186Z,3.60
2023-01-30T08:03:49.419Z,3.65
2023-01-30T08:06:23.394Z,3.72
2023-01-30T08:08:57.169Z,4.35
2023-01-30T08:11:30.169Z,5.35
2023-01-30T08:13:57.111Z,3.95
2023-01-30T08:16:30.317Z,4.60
2023-01-30T08:19:04.259Z,4.10
2023-01-30T08:21:31.109Z,4.30
2023-01-30T08:24:11.136Z,4.97
2023-01-30T08:26:44.262Z,4.50
2023-01-30T08:29:17.189Z,4.90
2023-01-30T08:31:50.248Z,4.68
2023-01-30T08:34:30.211Z,4.40
2023-01-30T08:36:57.011Z,4.75
2023-01-30T08:39:31.207Z,5.00
2023-01-30T08:42:04.231Z,4.35
2023-01-30T08:44:37.206Z,3.85
2023-01-30T08:47:10.225Z,4.18
2023-01-30T08:49:43.284Z,5.07
2023-01-30T08:52:10.695Z,4.90
2023-01-30T08:54:44.192Z,4.25
2023-01-30T08:57:11.184Z,4.90
2023-01-30T08:59:44.260Z,4.22
2023-01-30T09:02:12.529Z,4.05
2023-01-30T09:04:46.299Z,3.97
2023-01-30T09:07:13.116Z,4.63
2023-01-30T09:09:46.238Z,4.45
2023-01-30T09:12:19.352Z,4.60
2023-01-30T09:14:53.323Z,3.95
2023-01-30T09:17:20.257Z,5.00
2023-01-30T09:19:53.297Z,3.88
2023-01-30T09:22:29.253Z,4.65
2023-01-30T09:25:02.325Z,4.75
2023-01-30T09:27:29.334Z,4.80
2023-01-30T09:30:04.325Z,4.75
2023-01-30T09:32:38.348Z,3.88
2023-01-30T09:35:05.701Z,3.40
2023-01-30T09:37:39.378Z,3.58
2023-01-30T09:40:06.989Z,3.50
2023-01-30T09:43:04.405Z,4.72
2023-01-30T09:45:49.878Z,4.30
2023-01-30T09:48:45.341Z,3.85
2023-01-30T09:51:25.896Z,4.13
2023-01-30T09:54:05.353Z,3.72
2023-01-30T09:56:32.267Z,3.30
2023-01-30T09:59:09.393Z,4.03
2023-01-30T10:02:11.344Z,3.92
2023-01-30T10:05:00.558Z,4.22
2023-01-30T10:07:45.706Z,3.67
2023-01-30T10:10:25.385Z,3.92
2023-01-30T10:13:04.422Z,4.40
2023-01-30T10:15:45.444Z,4.07
2023-01-30T10:18:28.395Z,3.85
2023-01-30T10:21:07.387Z,3.95
2023-01-30T10:23:40.058Z,3.47
2023-01-30T10:26:21.419Z,3.25
2023-01-30T10:29:06.068Z,4.07
2023-01-30T10:31:50.426Z,4.50
2023-01-30T10:34:43.422Z,4.45
2023-01-30T10:37:49.401Z,3.67
2023-01-30T10:40:33.400Z,3.90
2023-01-30T10:43:13.258Z,4.20
2023-01-30T10:46:11.444Z,4.82
2023-01-30T10:49:02.869Z,3.70
2023-01-30T10:52:01.452Z,4.80
2023-01-30T10:54:46.490Z,3.65
2023-01-30T10:57:33.429Z,4.45
2023-01-30T11:00:43.419Z,4.45
2023-01-30T11:03:34.441Z,5.72
2023-01-30T11:06:11.686Z,4.28
2023-01-30T11:08:45.444Z,4.85
2023-01-30T11:11:30.804Z,4.57
2023-01-30T11:14:16.426Z,5.03
2023-01-30T11:16:50.682Z,4.15
2023-01-30T11:19:37.468Z,4.40
2023-01-30T11:22:05.965Z,4.13
2023-01-30T11:24:47.434Z,4.70
2023-01-30T11:27:27.564Z,5.15
2023-01-30T11:30:21.873Z,5.40
2023-01-30T11:32:56.533Z,4.32
2023-01-30T11:35:29.840Z,4.13
2023-01-30T11:38:19.506Z,5.28
2023-01-30T11:40:49.450Z,4.95
2023-01-30T11:43:22.477Z,4.55
2023-01-30T11:45:50.784Z,4.25
2023-01-30T11:48:33.086Z,5.43
2023-01-30T11:51:21.517Z,4.00
2023-01-30T11:53:59.747Z,5.13
2023-01-30T11:56:47.543Z,3.97
2023-01-30T11:59:29.041Z,4.07
2023-01-30T12:02:31.556Z,4.53
2023-01-30T12:05:05.307Z,4.45
2023-01-30T12:07:41.550Z,4.47
2023-01-30T12:10:29.888Z,4.35
2023-01-30T12:13:08.576Z,4.60
2023-01-30T12:15:44.557Z,4.68
2023-01-30T12:18:27.551Z,4.50
2023-01-30T12:21:10.399Z,5.05
2023-01-30T12:24:04.569Z,4.68
2023-01-30T12:26:35.853Z,4.50
2023-01-30T12:29:29.613Z,4.32
2023-01-30T12:32:11.857Z,4.22
2023-01-30T12:34:45.587Z,5.30
2023-01-30T12:37:42.585Z,4.10
2023-01-30T12:40:30.575Z,4.32
2023-01-30T12:43:00.310Z,4.85
2023-01-30T12:45:40.598Z,4.80
2023-01-30T12:48:43.997Z,4.97
2023-01-30T12:51:50.595Z,4.20
2023-01-30T12:54:34.606Z,4.78
2023-01-30T12:57:16.650Z,4.93
2023-01-30T12:59:57.709Z,4.82
2023-01-30T13:03:04.718Z,4.82
2023-01-30T13:06:02.667Z,4.93
2023-01-30T13:08:43.640Z,5.53
2023-01-30T13:11:48.118Z,4.47
2023-01-30T13:14:44.650Z,5.03
2023-01-30T13:17:51.640Z,4.80
2023-01-30T13:20:18.805Z,5.22
2023-01-30T13:23:05.666Z,4.82
2023-01-30T13:25:47.343Z,4.70
2023-01-30T13:28:25.658Z,5.17
2023-01-30T13:30:55.658Z,4.78
2023-01-30T13:33:44.828Z,4.78
2023-01-30T13:36:20.722Z,4.85
2023-01-30T13:39:23.698Z,4.75
2023-01-30T13:41:55.938Z,4.80
2023-01-30T13:44:40.828Z,4.93
2023-01-30T13:47:24.038Z,4.78
2023-01-30T13:50:13.709Z,5.18
2023-01-30T13:52:52.879Z,4.50
2023-01-30T13:55:34.708Z,4.97
2023-01-30T13:58:10.737Z,4.55
2023-01-30T14:00:44.814Z,5.13
2023-01-30T14:03:13.521Z,5.15
2023-01-30T14:05:59.723Z,4.40
2023-01-30T14:08:57.707Z,4.72
2023-01-30T14:11:53.783Z,4.93
2023-01-30T14:14:32.737Z,4.22
2023-01-30T14:17:21.773Z,4.85
2023-01-30T14:20:31.761Z,4.60
2023-01-30T14:23:06.808Z,4.18
2023-01-30T14:25:43.588Z,5.63
2023-01-30T14:28:16.749Z,4.28
2023-01-30T14:31:01.813Z,4.88
2023-01-30T14:33:33.377Z,5.53
2023-01-30T14:36:09.741Z,5.47
2023-01-30T14:38:41.561Z,4.78
2023-01-30T14:41:31.751Z,5.97
2023-01-30T14:43:58.570Z,4.18
2023-01-30T14:46:31.838Z,4.35
2023-01-30T14:49:27.829Z,5.15
2023-01-30T14:51:56.226Z,5.53
2023-01-30T14:54:41.800Z,4.60
2023-01-30T14:57:26.819Z,4.80
2023-01-30T15:00:16.489Z,4.50
2023-01-30T15:03:03.804Z,4.15
2023-01-30T15:05:45.958Z,4.00
2023-01-30T15:08:29.778Z,5.80
2023-01-30T15:11:18.924Z,4.70
2023-01-30T15:14:18.807Z,4.70
2023-01-30T15:17:21.832Z,4.80
2023-01-30T15:23:10.869Z,4.47
2023-01-30T15:25:49.853Z,4.55
2023-01-30T15:28:37.836Z,6.35
2023-01-30T15:31:14.211Z,6.00
2023-01-30T15:33:58.857Z,5.88
2023-01-30T15:36:33.319Z,5.32
2023-01-30T15:39:09.974Z,6.82
2023-01-30T15:41:44.852Z,5.25
2023-01-30T15:44:23.799Z,8.25
2023-01-30T15:47:15.936Z,6.03
2023-01-30T15:50:09.891Z,5.18
2023-01-30T15:52:55.901Z,5.15
2023-01-30T15:55:36.895Z,5.28
2023-01-30T15:58:20.920Z,6.72
2023-01-30T16:00:50.640Z,5.43
2023-01-30T16:03:30.924Z,5.45
2023-01-30T16:05:58.549Z,6.07
2023-01-30T16:08:37.917Z,4.95
2023-01-30T16:11:04.919Z,5.60
2023-01-30T16:13:40.075Z,4.25
2023-01-30T16:16:15.012Z,3.65
2023-01-30T16:19:03.915Z,4.20
2023-01-30T16:21:40.234Z,3.60
2023-01-30T16:24:38.936Z,3.90
2023-01-30T16:27:22.940Z,3.00
2023-01-30T16:29:53.198Z,2.83
2023-01-30T16:32:34.922Z,3.65
2023-01-30T16:35:26.965Z,3.17
2023-01-30T16:38:04.173Z,2.97
2023-01-30T16:40:58.969Z,2.90
2023-01-30T16:43:32.920Z,2.90
2023-01-30T16:46:44.951Z,3.35
2023-01-30T16:49:27.033Z,2.80
2023-01-30T16:52:02.549Z,3.63
2023-01-30T16:54:38.966Z,3.80
2023-01-30T16:57:06.123Z,3.92
2023-01-30T16:59:42.013Z,3.55
2023-01-30T17:02:28.207Z,4.57
2023-01-30T17:05:03.031Z,3.72
2023-01-30T17:07:43.968Z,3.88
2023-01-30T17:10:37.911Z,3.47
2023-01-30T17:13:12.009Z,3.83
2023-01-30T17:15:39.048Z,3.05
2023-01-30T17:18:16.072Z,2.67
2023-01-30T17:20:47.655Z,2.72
2023-01-30T17:23:24.982Z,3.15
2023-01-30T17:25:51.857Z,3.90
2023-01-30T17:28:21.679Z,3.53
2023-01-30T17:30:57.091Z,3.90
2023-01-30T17:33:25.843Z,3.67
2023-01-30T17:35:59.051Z,3.50
2023-01-30T17:38:25.857Z,3.88
2023-01-30T17:40:52.648Z,2.78
2023-01-30T17:43:26.099Z,3.05
2023-01-30T17:45:52.971Z,3.13
2023-01-30T17:48:26.047Z,3.92
2023-01-30T17:50:52.896Z,4.20
2023-01-30T17:53:26.179Z,2.72
2023-01-30T17:55:53.006Z,3.10
2023-01-30T17:58:20.080Z,3.20
2023-01-30T18:00:53.110Z,3.05
2023-01-30T18:03:26.082Z,2.58
2023-01-30T18:05:52.910Z,3.05
2023-01-30T18:08:26.076Z,2.53
2023-01-30T18:10:52.945Z,3.10
2023-01-30T18:13:27.095Z,3.90
2023-01-30T18:16:03.369Z,3.40
2023-01-30T18:18:37.176Z,4.00
2023-01-30T18:21:10.137Z,3.05
2023-01-30T18:23:37.354Z,3.38
2023-01-30T18:26:12.172Z,4.30
2023-01-30T18:28:39.969Z,5.28
2023-01-30T18:31:15.529Z,4.53
2023-01-30T18:33:51.156Z,4.43
2023-01-30T18:36:20.263Z,5.57
2023-01-30T18:38:54.272Z,4.50
2023-01-30T18:41:30.137Z,5.30
2023-01-30T18:43:59.577Z,4.18
2023-01-30T18:46:34.288Z,3.63
2023-01-30T18:49:01.423Z,4.40
2023-01-30T18:51:34.096Z,3.45
2023-01-30T18:54:08.153Z,3.88
2023-01-30T18:56:35.335Z,3.60
2023-01-30T18:59:05.144Z,3.75
2023-01-30T19:01:42.275Z,4.22
2023-01-30T19:04:10.892Z,3.72
2023-01-30T19:06:46.192Z,4.35
2023-01-30T19:09:21.132Z,3.85
2023-01-30T19:12:13.171Z,4.65
2023-01-30T19:14:47.213Z,3.83
2023-01-30T19:17:16.325Z,3.83
2023-01-30T19:19:50.219Z,3.53
2023-01-30T19:22:30.197Z,3.85
2023-01-30T19:25:03.263Z,3.45
2023-01-30T19:27:30.127Z,3.85
2023-01-30T19:30:11.207Z,3.72
2023-01-30T19:32:38.100Z,3.03
2023-01-30T19:35:12.177Z,3.33
2023-01-30T19:37:46.268Z,3.35
2023-01-30T19:40:13.215Z,3.35
2023-01-30T19:42:43.863Z,3.70
2023-01-30T19:45:18.325Z,3.05
2023-01-30T19:47:45.193Z,3.60
2023-01-30T19:50:19.626Z,4.22
2023-01-30T19:52:47.375Z,3.30
2023-01-30T19:55:18.575Z,3.35
2023-01-30T19:57:52.289Z,3.17
2023-01-30T20:00:26.274Z,3.42
2023-01-30T20:02:59.326Z,4.30
2023-01-30T20:05:26.175Z,3.65
2023-01-30T20:08:00.253Z,3.35
2023-01-30T20:10:30.360Z,3.67
2023-01-30T20:13:19.154Z,3.90
2023-01-30T20:19:19.263Z,3.63
2023-01-30T20:21:58.200Z,3.25
2023-01-30T20:24:27.976Z,3.53
2023-01-30T20:27:38.681Z,3.20
2023-01-30T20:30:56.771Z,4.22
2023-01-30T20:33:30.627Z,4.65
2023-01-30T20:36:19.971Z,4.10
2023-01-30T20:38:55.627Z,4.57
2023-01-30T20:41:27.061Z,4.40
2023-01-30T20:46:52.422Z,4.05
2023-01-30T20:49:43.711Z,3.72
2023-01-30T20:52:56.790Z,3.75
2023-01-30T20:55:37.331Z,3.08
2023-01-30T20:58:23.370Z,3.20
2023-01-30T21:01:03.569Z,3.65
2023-01-30T21:03:55.829Z,3.65
2023-01-30T21:06:47.036Z,3.78
2023-01-30T21:14:58.409Z,3.30
2023-01-30T21:17:31.375Z,3.63
2023-01-30T21:19:58.263Z,2.92
2023-01-30T21:22:25.137Z,3.20
2023-01-30T21:24:58.392Z,3.33
2023-01-30T21:27:31.435Z,3.03
2023-01-30T21:29:58.268Z,2.85
2023-01-30T21:32:32.393Z,3.05
2023-01-30T21:34:59.565Z,2.85
2023-01-30T21:37:51.455Z,3.42
2023-01-30T21:40:44.213Z,3.72
2023-01-30T21:43:20.436Z,2.85
2023-01-30T21:45:47.514Z,4.10
2023-01-30T21:48:20.455Z,4.00
2023-01-30T21:50:54.409Z,3.42
2023-01-30T21:53:21.292Z,4.53
2023-01-30T21:55:59.509Z,3.92
2023-01-30T21:58:31.246Z,3.42
2023-01-30T22:01:14.502Z,3.60
2023-01-30T22:03:41.646Z,2.85
2023-01-30T22:06:16.495Z,4.28
2023-01-30T22:08:43.472Z,3.33
2023-01-30T22:11:19.564Z,3.28
2023-01-30T22:13:47.612Z,3.08
2023-01-30T22:16:23.493Z,3.85
2023-01-30T22:18:55.759Z,2.80
2023-01-30T22:21:31.550Z,3.60
2023-01-30T22:23:59.021Z,3.50
2023-01-30T22:26:33.489Z,2.92
2023-01-30T22:29:02.288Z,3.03
2023-01-30T22:31:40.877Z,2.70
2023-01-30T22:34:07.875Z,3.17
2023-01-30T22:36:41.546Z,3.05
2023-01-30T22:39:08.519Z,2.63
2023-01-30T22:41:42.540Z,2.13
2023-01-30T22:44:10.167Z,2.47
2023-01-30T22:46:45.545Z,1.95
2023-01-30T22:49:12.390Z,1.95
2023-01-30T22:51:47.573Z,2.15
2023-01-30T22:54:25.027Z,2.20
2023-01-30T22:56:52.665Z,2.55
2023-01-30T22:59:26.547Z,2.70
2023-01-30T23:01:59.577Z,3.05
2023-01-30T23:04:26.571Z,2.60
2023-01-30T23:07:01.610Z,3.30
2023-01-30T23:09:28.480Z,2.30
2023-01-30T23:12:22.538Z,1.88
2023-01-30T23:14:49.362Z,2.45
2023-01-30T23:17:41.536Z,2.75
2023-01-30T23:20:09.365Z,2.40
2023-01-30T23:22:42.547Z,2.17
2023-01-30T23:25:10.742Z,2.90
2023-01-30T23:27:37.817Z,2.92
2023-01-30T23:30:11.555Z,2.20
2023-01-30T23:32:44.556Z,2.00
2023-01-30T23:35:11.393Z,2.00
2023-01-30T23:38:03.590Z,2.20
2023-01-30T23:40:30.435Z,1.15
2023-01-30T23:42:57.356Z,1.75
2023-01-30T23:45:33.607Z,2.20
2023-01-30T23:48:00.601Z,2.08
2023-01-30T23:50:33.615Z,2.13
2023-01-30T23:53:06.617Z,2.20
2023-01-30T23:55:33.935Z,2.30
2023-01-30T23:58:00.742Z,2.38
